N624ML LIQG-GE02
Flight info
| Callsign | N624ML |
|---|---|
| Flight time | N/A |
| Altitude | 1500 |
| Route | VFR |
| Aircraft | EC35/L-G/C |
Departure
| Time | 2026-03-24 11:49 |
|---|---|
| Airport | Cecina Airfield (LIQG) |
Arrival
| Time | N/A |
|---|---|
| Airport | Adventhealth Gordon Heliport (GE02) |
| Time | Latitude | Longitude | Altitude | Speed | Heading |
|---|---|---|---|---|---|
| 2026-03-24 11:42 | 43.28544 | 10.52512 | 9 ft | 0 kts | 359° |
| 2026-03-24 11:48 | 43.28540 | 10.52515 | 30 ft | 0 kts | 29° |
| 2026-03-24 11:48 | 43.28540 | 10.52524 | 10 ft | 0 kts | 62° |
| 2026-03-24 11:48 | 43.28534 | 10.52525 | 33 ft | 2 kts | 37° |
| 2026-03-24 11:49 | 43.28517 | 10.52516 | 22 ft | 7 kts | 238° |
| 2026-03-24 11:49 | 43.28491 | 10.52420 | 24 ft | 12 kts | 257° |
| 2026-03-24 11:49 | 43.28463 | 10.52308 | 25 ft | 16 kts | 290° |
| 2026-03-24 11:49 | 43.28608 | 10.52101 | 45 ft | 60 kts | 329° |
| 2026-03-24 11:50 | 43.29058 | 10.51703 | 160 ft | 91 kts | 329° |
| 2026-03-24 11:50 | 43.29581 | 10.51129 | 342 ft | 101 kts | 326° |
| 2026-03-24 11:50 | 43.30084 | 10.50592 | 728 ft | 90 kts | 329° |
| 2026-03-24 11:50 | 43.30570 | 10.50175 | 1145 ft | 84 kts | 335° |
| 2026-03-24 11:51 | 43.31205 | 10.49674 | 966 ft | 117 kts | 333° |
| 2026-03-24 11:51 | 43.31920 | 10.49072 | 834 ft | 126 kts | 331° |
| 2026-03-24 11:51 | 43.32666 | 10.48408 | 703 ft | 129 kts | 332° |
| 2026-03-24 11:51 | 43.33425 | 10.47735 | 572 ft | 130 kts | 332° |
| 2026-03-24 11:52 | 43.34184 | 10.47081 | 489 ft | 128 kts | 331° |
| 2026-03-24 11:52 | 43.34924 | 10.46426 | 474 ft | 123 kts | 332° |
| 2026-03-24 11:52 | 43.35645 | 10.45786 | 469 ft | 122 kts | 330° |
| 2026-03-24 11:52 | 43.36369 | 10.45169 | 477 ft | 122 kts | 332° |
| 2026-03-24 11:53 | 43.37093 | 10.44558 | 476 ft | 122 kts | 331° |
| 2026-03-24 11:53 | 43.37817 | 10.43945 | 483 ft | 122 kts | 330° |
| 2026-03-24 11:53 | 43.38540 | 10.43345 | 470 ft | 119 kts | 330° |
| 2026-03-24 11:53 | 43.39240 | 10.42729 | 462 ft | 121 kts | 329° |
| 2026-03-24 11:54 | 43.39951 | 10.42080 | 475 ft | 120 kts | 328° |
| 2026-03-24 11:54 | 43.40650 | 10.41484 | 483 ft | 120 kts | 329° |
| 2026-03-24 11:54 | 43.41373 | 10.40861 | 493 ft | 122 kts | 329° |
| 2026-03-24 11:54 | 43.42083 | 10.40217 | 494 ft | 123 kts | 327° |
| 2026-03-24 11:55 | 43.42798 | 10.39570 | 496 ft | 121 kts | 326° |
| 2026-03-24 11:55 | 43.43510 | 10.38939 | 495 ft | 120 kts | 326° |
| 2026-03-24 11:55 | 43.44212 | 10.38306 | 499 ft | 121 kts | 326° |
| 2026-03-24 11:55 | 43.44900 | 10.37627 | 483 ft | 125 kts | 315° |
| 2026-03-24 11:56 | 43.45415 | 10.36661 | 502 ft | 124 kts | 307° |
| 2026-03-24 11:56 | 43.45921 | 10.35653 | 498 ft | 126 kts | 306° |
| 2026-03-24 11:56 | 43.46417 | 10.34670 | 502 ft | 126 kts | 305° |
| 2026-03-24 11:56 | 43.46917 | 10.33681 | 503 ft | 124 kts | 305° |
| 2026-03-24 11:57 | 43.47602 | 10.32973 | 496 ft | 124 kts | 341° |
| 2026-03-24 11:57 | 43.48419 | 10.32609 | 499 ft | 125 kts | 343° |
| 2026-03-24 11:57 | 43.49260 | 10.32287 | 500 ft | 125 kts | 345° |
| 2026-03-24 11:57 | 43.50103 | 10.31963 | 500 ft | 125 kts | 344° |
| 2026-03-24 11:58 | 43.50944 | 10.31628 | 497 ft | 125 kts | 341° |
| 2026-03-24 11:58 | 43.51775 | 10.31197 | 500 ft | 125 kts | 339° |
| 2026-03-24 11:58 | 43.52596 | 10.30765 | 499 ft | 125 kts | 339° |
| 2026-03-24 11:58 | 43.53415 | 10.30331 | 496 ft | 125 kts | 339° |
| 2026-03-24 11:59 | 43.54262 | 10.30155 | 501 ft | 124 kts | 359° |
| 2026-03-24 11:59 | 43.55132 | 10.30114 | 500 ft | 125 kts | 354° |
| 2026-03-24 11:59 | 43.55995 | 10.29894 | 502 ft | 123 kts | 348° |
| 2026-03-24 11:59 | 43.56843 | 10.29659 | 500 ft | 124 kts | 349° |
| 2026-03-24 12:00 | 43.57698 | 10.29432 | 497 ft | 124 kts | 348° |
| 2026-03-24 12:00 | 43.58542 | 10.29210 | 499 ft | 124 kts | 349° |
| 2026-03-24 12:00 | 43.59399 | 10.28985 | 500 ft | 124 kts | 349° |
| 2026-03-24 12:00 | 43.60245 | 10.28763 | 499 ft | 124 kts | 348° |
| 2026-03-24 12:01 | 43.61099 | 10.28540 | 499 ft | 125 kts | 348° |
| 2026-03-24 12:01 | 43.61951 | 10.28318 | 498 ft | 125 kts | 348° |
| 2026-03-24 12:01 | 43.62811 | 10.28102 | 496 ft | 124 kts | 351° |
| 2026-03-24 12:01 | 43.63665 | 10.27920 | 499 ft | 124 kts | 351° |
| 2026-03-24 12:02 | 43.64532 | 10.27734 | 500 ft | 124 kts | 351° |
| 2026-03-24 12:02 | 43.65382 | 10.27550 | 502 ft | 124 kts | 351° |
| 2026-03-24 12:02 | 43.66249 | 10.27363 | 500 ft | 124 kts | 351° |
| 2026-03-24 12:02 | 43.67099 | 10.27186 | 502 ft | 122 kts | 350° |
| 2026-03-24 12:03 | 43.67934 | 10.27023 | 503 ft | 122 kts | 351° |
| 2026-03-24 12:03 | 43.68788 | 10.26848 | 499 ft | 124 kts | 351° |
| 2026-03-24 12:03 | 43.69648 | 10.26672 | 500 ft | 125 kts | 351° |
| 2026-03-24 12:03 | 43.70518 | 10.26492 | 500 ft | 125 kts | 350° |
| 2026-03-24 12:04 | 43.71387 | 10.26313 | 500 ft | 125 kts | 351° |
| 2026-03-24 12:04 | 43.72259 | 10.26132 | 500 ft | 125 kts | 351° |
| 2026-03-24 12:04 | 43.73123 | 10.25954 | 500 ft | 125 kts | 351° |
| 2026-03-24 12:04 | 43.74000 | 10.25771 | 500 ft | 125 kts | 351° |
| 2026-03-24 12:05 | 43.74871 | 10.25590 | 499 ft | 125 kts | 350° |
| 2026-03-24 12:05 | 43.75734 | 10.25414 | 494 ft | 125 kts | 351° |
| 2026-03-24 12:05 | 43.76606 | 10.25236 | 490 ft | 124 kts | 351° |
| 2026-03-24 12:05 | 43.77493 | 10.25054 | 497 ft | 124 kts | 351° |
| 2026-03-24 12:06 | 43.78370 | 10.24873 | 493 ft | 124 kts | 351° |
| 2026-03-24 12:06 | 43.79228 | 10.24691 | 490 ft | 124 kts | 351° |
| 2026-03-24 12:06 | 43.80105 | 10.24511 | 484 ft | 123 kts | 351° |
| 2026-03-24 12:06 | 43.80967 | 10.24336 | 486 ft | 123 kts | 351° |
| 2026-03-24 12:07 | 43.81822 | 10.24163 | 485 ft | 123 kts | 351° |
| 2026-03-24 12:07 | 43.82667 | 10.23993 | 486 ft | 123 kts | 349° |
| 2026-03-24 12:07 | 43.83525 | 10.23817 | 494 ft | 124 kts | 351° |
| 2026-03-24 12:07 | 43.84392 | 10.23632 | 496 ft | 125 kts | 351° |
| 2026-03-24 12:08 | 43.85260 | 10.23452 | 496 ft | 125 kts | 351° |
| 2026-03-24 12:08 | 43.86138 | 10.23270 | 495 ft | 125 kts | 352° |
| 2026-03-24 12:08 | 43.87017 | 10.23090 | 496 ft | 126 kts | 350° |
| 2026-03-24 12:08 | 43.87893 | 10.22913 | 496 ft | 126 kts | 350° |
| 2026-03-24 12:09 | 43.88753 | 10.22746 | 495 ft | 126 kts | 351° |
| 2026-03-24 12:09 | 43.89562 | 10.22283 | 495 ft | 126 kts | 324° |
| 2026-03-24 12:09 | 43.90288 | 10.21573 | 496 ft | 126 kts | 324° |
| 2026-03-24 12:09 | 43.91019 | 10.20858 | 512 ft | 128 kts | 323° |
| 2026-03-24 12:10 | 43.91759 | 10.20139 | 499 ft | 131 kts | 324° |
| 2026-03-24 12:10 | 43.92502 | 10.19411 | 496 ft | 131 kts | 325° |
| 2026-03-24 12:10 | 43.93251 | 10.18676 | 495 ft | 132 kts | 324° |
| 2026-03-24 12:10 | 43.93999 | 10.17937 | 496 ft | 132 kts | 324° |
| 2026-03-24 12:11 | 43.94750 | 10.17202 | 497 ft | 132 kts | 324° |
| 2026-03-24 12:11 | 43.95501 | 10.16467 | 497 ft | 132 kts | 324° |
| 2026-03-24 12:11 | 43.96258 | 10.15734 | 496 ft | 133 kts | 324° |